Main page
METAR-TAF:

METAR-TAF

Airports :

Bahrain, Bahrain

Bahrain International Airport

latitude: 26-16N, longitude: 050-39E, elevation: 2 m

Current weather observation

The report was made 37 minutes ago, at 22:00 UTC
Wind 4 kt from the North/Northwest
Temperature 28°C
Humidity 45%
Pressure 1009 hPa
Visibility 10 km or more
no clouds below 1500 m and no cumulonimbus

METAR: OBBI 272200Z 33004KT CAVOK 28/15 Q1009 NOSIG

Time: 01:37 (22:37 UTC)

Forecast

The report was made 5 hours and 37 minutes ago, at 17:00 UTC
Forecast valid from 27 at 18 UTC to 29 at 00 UTC
Wind 5 kt from variable directions
Visibility 10 km or more
no clouds below 1500 m and no cumulonimbus

TAF: OBBI 271700Z 2718/2900 VRB05KT CAVOK

Weather observations and forecasts of more than 4000 airports (METAR and TAF reports).

The available stations are represented by yellow and red dots on the map.

Hover mouse over dot to see the name of the station.

Then click to see weather observations and forecasts.

To change the map : click on the green buttons with a black cross to zoom in, on the green button with a dash to zoom out, or on the green arrows for adjacent maps.


METAR-TAF: